Time;durP1;ratioP1;P1;durP2;ratioP2;P2;SDS_P1;SDS_P2;PMS_P1;PMS_P2;Temp;Humidity;BMP_temperature;BMP_pressure;BME280_temperature;BME280_humidity;BME280_pressure;Samples;Min_cycle;Max_cycle;Signal;HPM_P1;HPM_P2
2021/01/01 00:01:45;;;;;;;23.45;18.17;;;20.30;39.90;;;;;;5044193;28;20029;-61
2021/01/01 00:04:11;;;;;;;20.48;18.33;;;20.30;40.50;;;;;;5060178;28;20024;-62
2021/01/01 00:06:46;;;;;;;20.38;17.13;;;20.30;39.80;;;;;;5050876;28;20061;-62
2021/01/01 00:09:14;;;;;;;18.92;16.15;;;20.30;40.00;;;;;;5050017;28;20060;-63
2021/01/01 00:11:40;;;;;;;16.60;13.93;;;20.30;39.90;;;;;;5049064;28;20084;-61
2021/01/01 00:14:07;;;;;;;19.10;15.98;;;20.30;39.90;;;;;;5050456;28;20492;-61
2021/01/01 00:16:34;;;;;;;19.00;13.98;;;20.30;39.90;;;;;;5051132;28;20128;-61
2021/01/01 00:19:00;;;;;;;21.50;13.35;;;20.30;39.90;;;;;;5053900;28;20348;-61
2021/01/01 00:21:30;;;;;;;14.90;13.32;;;20.30;39.90;;;;;;5052171;28;20109;-60
2021/01/01 00:23:57;;;;;;;16.63;12.98;;;20.20;39.90;;;;;;5047814;28;20375;-60
2021/01/01 00:26:23;;;;;;;18.25;13.75;;;20.20;39.70;;;;;;5053211;28;20099;-61
2021/01/01 00:28:49;;;;;;;13.63;12.20;;;20.30;39.80;;;;;;5054309;28;20432;-61
2021/01/01 00:31:24;;;;;;;14.20;12.60;;;20.30;39.80;;;;;;5053912;28;20029;-60
2021/01/01 00:33:51;;;;;;;14.68;12.15;;;20.20;39.90;;;;;;5052885;28;20031;-61
2021/01/01 00:36:18;;;;;;;14.05;12.05;;;20.20;39.80;;;;;;5049887;28;20024;-61
2021/01/01 00:38:50;;;;;;;15.85;12.38;;;20.20;40.50;;;;;;5053388;28;20024;-61
2021/01/01 00:41:26;;;;;;;21.80;18.83;;;20.20;39.90;;;;;;5056304;28;20112;-61
2021/01/01 00:43:53;;;;;;;27.10;24.15;;;20.20;39.90;;;;;;5054046;28;20021;-61
2021/01/01 00:46:21;;;;;;;28.45;25.45;;;20.20;39.70;;;;;;5055060;28;20025;-61
2021/01/01 00:48:47;;;;;;;29.58;26.08;;;20.20;39.70;;;;;;5051666;28;20033;-61
2021/01/01 00:51:13;;;;;;;28.58;24.75;;;20.20;39.70;;;;;;5050971;28;20056;-61
2021/01/01 00:53:39;;;;;;;27.02;23.30;;;20.30;39.80;;;;;;5059515;28;20029;-63
2021/01/01 00:56:05;;;;;;;26.17;23.38;;;20.20;39.70;;;;;;5045125;28;20449;-62
2021/01/01 00:58:32;;;;;;;25.85;23.05;;;20.20;39.70;;;;;;5051357;28;20027;-64
2021/01/01 01:00:57;;;;;;;22.80;20.40;;;20.20;39.70;;;;;;5051749;28;20120;-63
2021/01/01 01:03:23;;;;;;;24.65;20.95;;;20.20;39.70;;;;;;5056932;28;20096;-63
2021/01/01 01:05:50;;;;;;;23.50;21.00;;;20.20;39.70;;;;;;5054644;28;20040;-63
2021/01/01 01:08:18;;;;;;;24.48;20.13;;;20.20;39.70;;;;;;5059578;28;20040;-63
2021/01/01 01:10:44;;;;;;;21.83;18.55;;;20.20;39.80;;;;;;5055183;28;20041;-62
2021/01/01 01:13:10;;;;;;;20.52;18.42;;;20.20;39.70;;;;;;5059688;28;20032;-62
2021/01/01 01:15:36;;;;;;;22.95;18.45;;;20.20;39.70;;;;;;5048044;28;20025;-61
2021/01/01 01:18:02;;;;;;;19.73;17.63;;;20.20;39.70;;;;;;5052750;28;20024;-62
2021/01/01 01:20:28;;;;;;;21.70;18.27;;;20.20;39.70;;;;;;5051135;28;20471;-62
2021/01/01 01:22:54;;;;;;;19.52;16.63;;;20.20;39.70;;;;;;5053965;28;20028;-63
2021/01/01 01:25:21;;;;;;;18.50;16.33;;;20.20;39.70;;;;;;5046108;28;20499;-63
2021/01/01 01:27:47;;;;;;;18.55;16.05;;;20.20;39.70;;;;;;5051299;28;20109;-62
2021/01/01 01:30:13;;;;;;;16.98;14.98;;;20.20;39.70;;;;;;5063710;28;20029;-63
2021/01/01 01:32:39;;;;;;;18.58;15.35;;;20.20;39.60;;;;;;5067496;28;20028;-63
2021/01/01 01:35:06;;;;;;;16.80;13.93;;;20.10;39.60;;;;;;5060204;28;20044;-62
2021/01/01 01:37:32;;;;;;;16.15;14.45;;;20.20;39.60;;;;;;5056518;28;20050;-63
2021/01/01 01:39:58;;;;;;;19.25;17.15;;;20.20;39.60;;;;;;5053365;28;20064;-63
2021/01/01 01:42:24;;;;;;;20.20;16.88;;;20.10;39.50;;;;;;5057515;28;20024;-62
2021/01/01 01:44:50;;;;;;;22.50;16.80;;;20.10;39.50;;;;;;5049513;28;20152;-63
2021/01/01 01:47:19;;;;;;;18.23;15.18;;;20.20;39.50;;;;;;5051474;28;20087;-62
2021/01/01 01:49:46;;;;;;;18.65;16.35;;;20.10;39.50;;;;;;5045743;28;20108;-63
2021/01/01 01:52:12;;;;;;;18.23;15.07;;;20.10;39.40;;;;;;5055112;28;20082;-62
2021/01/01 01:54:40;;;;;;;18.27;14.40;;;20.10;39.40;;;;;;5047666;28;20029;-62
2021/01/01 01:57:08;;;;;;;16.73;14.20;;;20.10;39.40;;;;;;5057296;28;20048;-61
2021/01/01 01:59:35;;;;;;;17.75;14.57;;;20.00;39.40;;;;;;5052435;28;20068;-61
2021/01/01 02:02:01;;;;;;;16.13;13.40;;;20.10;39.40;;;;;;5049532;28;20407;-61
2021/01/01 02:04:27;;;;;;;15.82;12.88;;;20.10;39.40;;;;;;5053701;28;20039;-61
2021/01/01 02:06:53;;;;;;;14.18;12.68;;;20.00;39.40;;;;;;5048062;28;20128;-60
2021/01/01 02:09:19;;;;;;;15.10;12.77;;;20.00;39.40;;;;;;5050789;28;20033;-60
2021/01/01 02:11:49;;;;;;;11.82;10.63;;;20.00;39.50;;;;;;5053722;28;20025;-61
2021/01/01 02:14:16;;;;;;;11.57;10.35;;;20.00;39.90;;;;;;5051024;28;20028;-61
2021/01/01 02:16:43;;;;;;;12.13;10.93;;;20.00;40.00;;;;;;5052874;28;20036;-61
2021/01/01 02:19:13;;;;;;;11.73;9.98;;;20.00;39.90;;;;;;5050479;28;20107;-61
2021/01/01 02:21:41;;;;;;;14.93;11.10;;;19.90;40.10;;;;;;5055521;28;20025;-61
2021/01/01 02:24:11;;;;;;;12.82;10.95;;;20.00;40.00;;;;;;5053120;28;20037;-61
2021/01/01 02:26:38;;;;;;;11.55;9.55;;;20.00;40.00;;;;;;5052854;28;20513;-61
2021/01/01 02:29:04;;;;;;;13.52;9.38;;;19.90;40.00;;;;;;5042798;28;20036;-61
2021/01/01 02:31:30;;;;;;;9.85;8.50;;;19.90;40.30;;;;;;5063505;28;20492;-61
2021/01/01 02:33:56;;;;;;;10.30;8.52;;;19.90;40.30;;;;;;5059996;28;20017;-61
2021/01/01 02:36:22;;;;;;;9.55;8.55;;;19.90;40.40;;;;;;5060393;28;20060;-62
2021/01/01 02:38:48;;;;;;;9.00;8.00;;;19.80;40.50;;;;;;5058505;28;20033;-61
2021/01/01 02:41:14;;;;;;;10.35;7.32;;;19.80;40.50;;;;;;5058184;28;20048;-62
2021/01/01 02:43:40;;;;;;;9.07;7.60;;;19.90;40.60;;;;;;5055839;28;20051;-60
2021/01/01 02:46:06;;;;;;;8.13;6.75;;;19.90;40.60;;;;;;5053611;28;20029;-61
2021/01/01 02:48:32;;;;;;;8.88;7.50;;;19.80;40.60;;;;;;5055475;28;20785;-61
2021/01/01 02:50:58;;;;;;;10.15;7.43;;;19.80;40.70;;;;;;5051146;28;20059;-61
2021/01/01 02:53:24;;;;;;;10.18;7.28;;;19.80;40.60;;;;;;5054912;28;20115;-61
2021/01/01 02:55:50;;;;;;;7.88;7.00;;;19.80;40.70;;;;;;5063107;28;20082;-61
2021/01/01 02:58:16;;;;;;;8.68;7.05;;;19.80;40.80;;;;;;5061414;28;20025;-61
2021/01/01 03:00:46;;;;;;;7.05;6.38;;;19.80;40.80;;;;;;5065968;28;20353;-60
2021/01/01 03:03:12;;;;;;;8.07;6.32;;;19.80;40.90;;;;;;5053967;28;20060;-60
2021/01/01 03:05:38;;;;;;;7.75;6.70;;;19.80;40.90;;;;;;5055606;28;20076;-61
2021/01/01 03:08:05;;;;;;;8.48;6.43;;;19.70;40.90;;;;;;5052623;28;20045;-61
2021/01/01 03:10:31;;;;;;;7.13;6.43;;;19.70;40.90;;;;;;5061896;28;20429;-61
2021/01/01 03:12:57;;;;;;;7.07;5.72;;;19.70;41.00;;;;;;5060851;28;20103;-61
2021/01/01 03:15:23;;;;;;;7.10;6.30;;;19.70;41.00;;;;;;5061910;28;20140;-60
2021/01/01 03:17:49;;;;;;;8.02;6.00;;;19.70;41.00;;;;;;5047716;28;20377;-61
2021/01/01 03:20:15;;;;;;;7.72;5.90;;;19.70;41.10;;;;;;5056943;28;20051;-62
2021/01/01 03:22:41;;;;;;;6.00;5.40;;;19.70;41.10;;;;;;5060170;28;20032;-60
2021/01/01 03:25:08;;;;;;;6.50;5.82;;;19.70;41.20;;;;;;5067557;28;20381;-61
2021/01/01 03:27:34;;;;;;;5.28;4.78;;;19.70;41.20;;;;;;5053738;28;20125;-61
2021/01/01 03:30:00;;;;;;;5.93;4.22;;;19.70;41.30;;;;;;5054707;28;20041;-61
2021/01/01 03:32:26;;;;;;;5.90;5.05;;;19.70;41.30;;;;;;5060242;28;20044;-62
2021/01/01 03:34:53;;;;;;;4.60;3.90;;;19.70;41.30;;;;;;5053184;28;20076;-61
2021/01/01 03:37:19;;;;;;;4.40;4.00;;;19.70;41.40;;;;;;5052872;28;20043;-61
2021/01/01 03:39:45;;;;;;;3.80;3.40;;;19.70;41.40;;;;;;5061196;28;20021;-62
2021/01/01 03:42:11;;;;;;;5.00;3.70;;;19.60;41.40;;;;;;5051322;28;20040;-62
2021/01/01 03:44:38;;;;;;;7.20;3.53;;;19.80;41.50;;;;;;5050138;28;20021;-62
2021/01/01 03:47:05;;;;;;;5.03;3.70;;;19.70;41.50;;;;;;5057779;28;20099;-62
2021/01/01 03:49:32;;;;;;;4.32;3.50;;;19.60;41.50;;;;;;5059419;28;20028;-61
2021/01/01 03:51:58;;;;;;;3.85;3.45;;;19.60;41.50;;;;;;5064455;28;20020;-61
2021/01/01 03:54:24;;;;;;;4.38;3.53;;;19.60;41.40;;;;;;5063598;28;20021;-62
2021/01/01 03:56:50;;;;;;;3.10;2.80;;;19.60;41.50;;;;;;5052466;28;20036;-62
2021/01/01 03:59:16;;;;;;;3.20;2.90;;;19.60;41.50;;;;;;5063063;28;20075;-62
2021/01/01 04:01:42;;;;;;;4.07;2.85;;;19.60;41.50;;;;;;5065347;28;20029;-62
2021/01/01 04:04:08;;;;;;;3.33;2.80;;;19.60;41.40;;;;;;5052765;28;20070;-62
2021/01/01 04:06:34;;;;;;;4.03;3.00;;;19.60;41.50;;;;;;5050105;28;20071;-62
2021/01/01 04:09:00;;;;;;;4.68;3.13;;;19.60;41.50;;;;;;5065212;28;20553;-62
2021/01/01 04:11:26;;;;;;;3.00;2.70;;;19.60;41.50;;;;;;5058387;28;20136;-61
2021/01/01 04:13:51;;;;;;;3.42;2.47;;;19.60;41.50;;;;;;5061293;28;20036;-62
2021/01/01 04:16:17;;;;;;;2.22;1.95;;;19.50;41.40;;;;;;5057576;28;20397;-62
2021/01/01 04:18:43;;;;;;;4.00;2.58;;;19.50;41.40;;;;;;5060236;28;20024;-62
2021/01/01 04:21:09;;;;;;;5.20;2.60;;;19.50;41.40;;;;;;5059387;28;20029;-60
2021/01/01 04:23:35;;;;;;;3.22;2.00;;;19.50;41.40;;;;;;5065977;28;20482;-60
2021/01/01 04:26:03;;;;;;;3.72;2.45;;;19.50;41.40;;;;;;5059507;28;20405;-60
2021/01/01 04:28:29;;;;;;;2.60;2.00;;;19.50;41.40;;;;;;5057937;28;20044;-61
2021/01/01 04:30:56;;;;;;;2.75;2.10;;;19.50;41.40;;;;;;5065453;28;20017;-61
2021/01/01 04:33:21;;;;;;;2.53;1.90;;;19.50;41.30;;;;;;5064415;28;20033;-61
2021/01/01 04:35:47;;;;;;;3.03;2.10;;;19.50;41.30;;;;;;5062102;28;20033;-61
2021/01/01 04:38:13;;;;;;;2.78;2.00;;;19.50;41.90;;;;;;5048347;28;20025;-61
2021/01/01 04:40:42;;;;;;;2.58;1.70;;;19.50;41.20;;;;;;5065036;28;20431;-61
2021/01/01 04:43:08;;;;;;;3.03;1.67;;;19.50;41.10;;;;;;5061655;28;20478;-61
2021/01/01 04:45:35;;;;;;;2.22;1.70;;;19.50;41.10;;;;;;5068394;28;20039;-61
2021/01/01 04:48:01;;;;;;;2.40;1.77;;;19.50;41.10;;;;;;5042314;28;20060;-61
2021/01/01 04:50:27;;;;;;;2.83;1.60;;;19.40;40.90;;;;;;5064380;28;20474;-61
2021/01/01 04:52:57;;;;;;;2.22;1.67;;;19.50;41.00;;;;;;5063837;28;20478;-61
2021/01/01 04:55:26;;;;;;;1.85;1.50;;;19.40;40.90;;;;;;5069425;28;20101;-61
2021/01/01 04:57:53;;;;;;;3.85;1.52;;;19.40;40.90;;;;;;5056391;28;20471;-61
2021/01/01 05:00:20;;;;;;;1.70;1.42;;;19.40;40.90;;;;;;5063234;28;20052;-61
2021/01/01 05:02:46;;;;;;;1.73;1.40;;;19.40;40.90;;;;;;5068256;28;20024;-60
2021/01/01 05:05:12;;;;;;;1.58;1.23;;;19.40;40.80;;;;;;5068993;28;20059;-61
2021/01/01 05:07:38;;;;;;;1.85;1.45;;;19.40;40.80;;;;;;5056699;28;20052;-61
2021/01/01 05:10:06;;;;;;;3.90;1.45;;;19.40;40.70;;;;;;5060534;28;20059;-61
2021/01/01 05:12:33;;;;;;;2.22;1.20;;;19.40;40.80;;;;;;5066524;28;20072;-61
2021/01/01 05:14:59;;;;;;;2.67;1.50;;;19.40;40.70;;;;;;5063824;28;20044;-62
2021/01/01 05:17:36;;;;;;;3.33;1.20;;;19.40;40.70;;;;;;5056600;28;20036;-61
2021/01/01 05:20:07;;;;;;;2.90;1.40;;;19.40;40.80;;;;;;5064066;28;20044;-61
2021/01/01 05:22:33;;;;;;;2.42;0.93;;;19.40;40.80;;;;;;5053161;28;20029;-61
2021/01/01 05:25:17;;;;;;;1.40;1.10;;;19.40;40.70;;;;;;5063278;28;20079;-61
2021/01/01 05:27:47;;;;;;;2.78;1.42;;;19.30;40.70;;;;;;5057818;28;20029;-63
2021/01/01 05:30:15;;;;;;;1.42;0.90;;;19.30;40.60;;;;;;5066950;28;20021;-62
2021/01/01 05:32:52;;;;;;;2.30;1.30;;;19.30;40.60;;;;;;5057006;28;20025;-62
2021/01/01 05:35:29;;;;;;;1.88;1.10;;;19.30;40.70;;;;;;5064431;28;20094;-62
2021/01/01 05:37:56;;;;;;;2.40;1.38;;;19.30;40.60;;;;;;5054777;28;20054;-62
2021/01/01 05:40:30;;;;;;;1.85;1.27;;;19.30;40.60;;;;;;5059844;28;20044;-61
2021/01/01 05:43:16;;;;;;;1.23;1.10;;;19.30;40.50;;;;;;5057538;28;20068;-61
2021/01/01 05:45:42;;;;;;;3.22;1.80;;;19.30;40.50;;;;;;5057134;28;20474;-62
2021/01/01 05:48:09;;;;;;;2.60;1.20;;;19.30;40.50;;;;;;5048023;28;20128;-61
2021/01/01 05:50:35;;;;;;;3.05;1.05;;;19.30;40.50;;;;;;5063305;28;20036;-62
2021/01/01 05:53:19;;;;;;;1.92;0.98;;;19.30;40.50;;;;;;5056935;28;20158;-62
2021/01/01 05:55:47;;;;;;;2.88;0.93;;;19.30;40.40;;;;;;5078436;28;20489;-62
2021/01/01 05:58:26;;;;;;;1.52;1.13;;;19.30;40.30;;;;;;5047154;28;20466;-60
2021/01/01 06:00:57;;;;;;;1.45;0.88;;;19.20;40.20;;;;;;5062035;28;20381;-62
2021/01/01 06:03:34;;;;;;;2.65;1.25;;;19.30;40.20;;;;;;5059440;28;20016;-61
2021/01/01 06:06:04;;;;;;;3.42;1.27;;;19.30;40.20;;;;;;5067283;28;20028;-62
2021/01/01 06:08:31;;;;;;;1.70;1.13;;;19.30;40.20;;;;;;5057705;28;20119;-63
2021/01/01 06:11:03;;;;;;;3.15;1.23;;;19.20;40.20;;;;;;5059566;28;20033;-63
2021/01/01 06:13:36;;;;;;;1.33;1.00;;;19.30;40.10;;;;;;5063262;28;20026;-62
2021/01/01 06:16:04;;;;;;;1.15;0.88;;;19.30;40.10;;;;;;5057355;28;20553;-62
2021/01/01 06:18:32;;;;;;;1.35;1.10;;;19.20;40.10;;;;;;5054752;28;20020;-60
2021/01/01 06:21:08;;;;;;;2.28;1.23;;;19.20;40.00;;;;;;5063137;28;20025;-62
2021/01/01 06:23:40;;;;;;;3.70;1.17;;;19.20;39.90;;;;;;5049440;28;20036;-62
2021/01/01 06:26:09;;;;;;;3.15;0.95;;;19.20;39.80;;;;;;5054572;28;20033;-62
2021/01/01 06:28:37;;;;;;;3.53;0.90;;;19.20;39.80;;;;;;5055491;28;20025;-62
2021/01/01 06:31:05;;;;;;;2.22;0.80;;;19.20;39.80;;;;;;5058964;28;20497;-61
2021/01/01 06:33:32;;;;;;;1.83;0.93;;;19.20;39.80;;;;;;5060540;28;20034;-62
2021/01/01 06:35:58;;;;;;;2.22;0.98;;;19.20;39.80;;;;;;5058599;28;20475;-62
2021/01/01 06:38:42;;;;;;;2.40;1.00;;;19.20;39.80;;;;;;5054490;28;20039;-63
2021/01/01 06:41:14;;;;;;;3.55;1.25;;;19.10;39.80;;;;;;5057918;28;20108;-61
2021/01/01 06:43:52;;;;;;;1.92;0.88;;;19.10;39.80;;;;;;5062294;28;20086;-62
2021/01/01 06:46:38;;;;;;;2.10;0.80;;;19.10;39.80;;;;;;5054121;28;20043;-62
2021/01/01 06:49:07;;;;;;;2.15;0.90;;;19.10;39.80;;;;;;5054785;28;20109;-61
2021/01/01 06:51:33;;;;;;;2.92;1.00;;;19.20;39.80;;;;;;5063148;28;20055;-61
2021/01/01 06:54:17;;;;;;;1.67;0.75;;;19.10;39.70;;;;;;5065348;28;20035;-62
2021/01/01 06:56:44;;;;;;;2.83;0.73;;;19.10;39.60;;;;;;5060406;28;20119;-61
2021/01/01 06:59:11;;;;;;;2.13;1.02;;;19.10;39.80;;;;;;5068548;28;20016;-62
2021/01/01 07:01:44;;;;;;;5.57;1.50;;;19.10;39.80;;;;;;5060463;28;20092;-62
2021/01/01 07:04:11;;;;;;;2.58;0.95;;;19.10;39.60;;;;;;5054759;28;20037;-62
2021/01/01 07:06:42;;;;;;;2.05;0.80;;;19.10;39.70;;;;;;5045537;28;20082;-61
2021/01/01 07:09:10;;;;;;;2.67;0.82;;;19.10;39.80;;;;;;5057263;28;20057;-61
2021/01/01 07:11:38;;;;;;;2.20;0.80;;;19.10;39.80;;;;;;5063445;28;20122;-62
2021/01/01 07:14:06;;;;;;;2.90;0.90;;;19.10;39.80;;;;;;5061269;28;20052;-62
2021/01/01 07:16:44;;;;;;;3.45;1.20;;;19.10;39.80;;;;;;5055282;28;20071;-62
2021/01/01 07:19:10;;;;;;;2.92;0.80;;;19.10;39.80;;;;;;5061612;28;20043;-62
2021/01/01 07:21:38;;;;;;;2.75;0.75;;;19.10;39.80;;;;;;5060918;28;20038;-62
2021/01/01 07:24:04;;;;;;;2.83;0.88;;;19.10;39.90;;;;;;5062758;28;20028;-62
2021/01/01 07:26:30;;;;;;;2.67;1.10;;;19.10;40.50;;;;;;5056766;28;20078;-62
2021/01/01 07:29:01;;;;;;;2.92;0.90;;;19.10;39.90;;;;;;5060363;28;20029;-61
2021/01/01 07:31:28;;;;;;;1.90;0.70;;;19.10;39.90;;;;;;5058446;28;20371;-61
2021/01/01 07:33:55;;;;;;;2.85;1.00;;;19.10;39.90;;;;;;5065671;28;20024;-62
2021/01/01 07:36:21;;;;;;;2.38;0.82;;;19.10;39.90;;;;;;5052469;28;20037;-62
2021/01/01 07:38:48;;;;;;;2.75;1.05;;;19.10;39.90;;;;;;5062107;28;20033;-62
2021/01/01 07:41:16;;;;;;;1.63;0.70;;;19.10;39.90;;;;;;5051704;28;20096;-62
2021/01/01 07:43:43;;;;;;;1.58;0.70;;;19.10;39.90;;;;;;5060383;28;20024;-62
2021/01/01 07:46:10;;;;;;;3.30;0.68;;;19.00;39.90;;;;;;5053904;28;20033;-62
2021/01/01 07:48:37;;;;;;;4.07;0.75;;;19.00;39.80;;;;;;5057816;28;20032;-61
2021/01/01 07:51:07;;;;;;;1.98;0.93;;;19.10;39.90;;;;;;5055911;28;20021;-60
2021/01/01 07:53:37;;;;;;;;;;;19.10;40.00;;;;;;5064513;28;20115;-62
2021/01/01 07:56:09;;;;;;;3.08;1.08;;;19.00;40.00;;;;;;5055741;28;19948;-62
2021/01/01 07:58:37;;;;;;;1.40;0.70;;;19.10;39.90;;;;;;5057796;28;20033;-62
2021/01/01 08:01:11;;;;;;;4.18;0.98;;;19.10;39.80;;;;;;5055271;28;20074;-62
2021/01/01 08:03:38;;;;;;;2.70;0.70;;;19.10;39.90;;;;;;5064515;28;20100;-62
2021/01/01 08:06:06;;;;;;;3.00;0.90;;;19.10;39.90;;;;;;5058343;28;20029;-62
2021/01/01 08:08:34;;;;;;;2.90;0.93;;;19.10;39.90;;;;;;5051395;28;21844;-62
2021/01/01 08:11:00;;;;;;;2.47;0.88;;;19.10;39.90;;;;;;5058496;28;20036;-63
2021/01/01 08:13:28;;;;;;;3.33;2.00;;;19.10;39.80;;;;;;5054126;28;20099;-63
2021/01/01 08:16:14;;;;;;;6.18;3.95;;;19.00;39.60;;;;;;5058317;28;20514;-62
2021/01/01 08:18:41;;;;;;;8.70;5.88;;;19.00;39.60;;;;;;5059826;28;20051;-62
2021/01/01 08:21:07;;;;;;;7.38;6.05;;;19.10;39.50;;;;;;5053875;28;20037;-62
2021/01/01 08:23:57;;;;;;;8.48;5.30;;;19.00;39.40;;;;;;5067768;28;20024;-62
2021/01/01 08:26:23;;;;;;;7.90;5.65;;;19.00;39.50;;;;;;5052109;28;20041;-61
2021/01/01 08:28:52;;;;;;;6.80;5.75;;;19.00;39.50;;;;;;5056018;28;20036;-62
2021/01/01 08:31:20;;;;;;;6.18;5.07;;;19.00;39.50;;;;;;5052852;28;20033;-61
2021/01/01 08:33:50;;;;;;;6.47;4.70;;;19.10;39.50;;;;;;5052528;28;20021;-62
2021/01/01 08:36:16;;;;;;;6.50;5.15;;;19.00;39.50;;;;;;5054265;28;20032;-62
2021/01/01 08:38:43;;;;;;;6.90;5.10;;;19.00;39.50;;;;;;5053335;28;20086;-62
2021/01/01 08:41:16;;;;;;;6.88;5.38;;;19.00;39.50;;;;;;5051278;28;20391;-62
2021/01/01 08:43:42;;;;;;;6.85;4.63;;;19.10;39.50;;;;;;5048704;28;20028;-62
2021/01/01 08:46:15;;;;;;;7.03;4.75;;;19.10;39.50;;;;;;5052943;28;20086;-61
2021/01/01 08:48:41;;;;;;;5.45;4.15;;;19.10;39.50;;;;;;5050392;28;20017;-62
2021/01/01 08:51:07;;;;;;;6.70;3.50;;;19.10;39.50;;;;;;5048846;28;20553;-60
2021/01/01 08:53:38;;;;;;;4.43;3.88;;;19.10;39.60;;;;;;5051541;28;20032;-60
2021/01/01 08:56:05;;;;;;;10.18;9.07;;;19.10;39.70;;;;;;5054137;28;20541;-60
2021/01/01 08:58:32;;;;;;;11.65;10.20;;;19.20;39.80;;;;;;5038708;28;20017;-60
2021/01/01 09:01:17;;;;;;;10.20;9.07;;;19.20;39.80;;;;;;5053095;28;20115;-60
2021/01/01 09:03:44;;;;;;;13.73;11.02;;;19.20;39.80;;;;;;5054186;28;20371;-61
2021/01/01 09:06:18;;;;;;;11.20;10.05;;;19.20;39.80;;;;;;5052825;28;20040;-61
2021/01/01 09:08:45;;;;;;;13.60;11.15;;;19.20;39.80;;;;;;5049899;28;20045;-60
2021/01/01 09:11:23;;;;;;;13.00;11.57;;;19.20;39.70;;;;;;5055467;28;20099;-60
2021/01/01 09:13:59;;;;;;;12.95;11.05;;;19.20;39.70;;;;;;5052189;28;20033;-60
2021/01/01 09:16:25;;;;;;;11.43;10.18;;;19.30;39.80;;;;;;5052961;28;20127;-59
2021/01/01 09:18:51;;;;;;;14.02;10.93;;;19.30;39.70;;;;;;5053842;28;20017;-60
2021/01/01 09:21:18;;;;;;;13.43;11.82;;;19.30;39.70;;;;;;5052735;28;20372;-59
2021/01/01 09:23:57;;;;;;;12.20;10.45;;;19.30;39.70;;;;;;5056422;28;20021;-60
2021/01/01 09:26:25;;;;;;;18.13;12.40;;;19.30;39.50;;;;;;5057759;28;20074;-60
2021/01/01 09:29:01;;;;;;;16.70;14.13;;;19.40;39.50;;;;;;5048385;28;20032;-59
2021/01/01 09:31:29;;;;;;;27.35;23.00;;;19.30;39.10;;;;;;5067844;28;20090;-60
2021/01/01 09:34:05;;;;;;;23.95;18.30;;;19.30;39.00;;;;;;5058833;28;20021;-60
2021/01/01 09:36:33;;;;;;;19.15;16.02;;;19.40;38.70;;;;;;5053296;28;20025;-58
2021/01/01 09:38:59;;;;;;;18.00;16.02;;;19.30;38.60;;;;;;5047807;28;20070;-58
2021/01/01 09:41:29;;;;;;;18.95;15.30;;;19.40;38.60;;;;;;5057633;28;20020;-59
2021/01/01 09:43:55;;;;;;;19.58;15.48;;;19.40;38.40;;;;;;5060269;28;20016;-58
2021/01/01 09:46:21;;;;;;;33.28;28.83;;;19.40;38.30;;;;;;5056778;28;20112;-58
2021/01/01 09:48:47;;;;;;;45.10;36.08;;;19.40;38.30;;;;;;5054747;28;20032;-58
2021/01/01 09:51:16;;;;;;;45.05;38.47;;;19.40;38.30;;;;;;5067364;28;20469;-58
2021/01/01 09:53:42;;;;;;;35.53;29.98;;;19.40;38.40;;;;;;5053032;28;20025;-65
2021/01/01 09:56:09;;;;;;;35.15;29.25;;;19.40;38.40;;;;;;5051288;28;20044;-61
2021/01/01 09:58:34;;;;;;;30.13;26.90;;;19.40;38.50;;;;;;5053316;28;20017;-61
2021/01/01 10:01:01;;;;;;;27.05;24.13;;;19.40;38.60;;;;;;5049973;28;20025;-60
2021/01/01 10:03:27;;;;;;;31.25;25.25;;;19.50;38.60;;;;;;5052741;28;20045;-61
2021/01/01 10:05:53;;;;;;;31.52;25.92;;;19.50;38.80;;;;;;5052246;28;20029;-61
2021/01/01 10:08:20;;;;;;;25.85;21.75;;;19.50;38.70;;;;;;5051663;28;20090;-60
2021/01/01 10:10:47;;;;;;;31.70;24.27;;;19.60;38.60;;;;;;5052118;28;20414;-60
2021/01/01 10:13:13;;;;;;;25.27;21.35;;;19.60;38.60;;;;;;5052815;28;20060;-59
2021/01/01 10:15:39;;;;;;;26.50;21.85;;;19.60;38.50;;;;;;5055989;28;20494;-59
2021/01/01 10:18:06;;;;;;;21.90;18.52;;;19.60;38.50;;;;;;5054620;28;20032;-59
2021/01/01 10:20:32;;;;;;;23.13;17.33;;;19.70;38.20;;;;;;5037745;28;20379;-59
2021/01/01 10:22:58;;;;;;;16.58;12.48;;;19.70;38.10;;;;;;5059026;28;20113;-59
2021/01/01 10:25:25;;;;;;;10.15;8.30;;;19.70;37.80;;;;;;5057504;28;20083;-59
2021/01/01 10:27:51;;;;;;;8.55;5.50;;;19.70;37.20;;;;;;5056298;28;20099;-59
2021/01/01 10:30:17;;;;;;;9.95;3.42;;;19.70;36.70;;;;;;5058154;28;20475;-58
2021/01/01 10:32:43;;;;;;;3.30;1.30;;;19.60;36.60;;;;;;5051695;28;20099;-60
2021/01/01 10:35:09;;;;;;;4.40;2.30;;;19.60;36.50;;;;;;5062271;28;20083;-59
2021/01/01 10:37:35;;;;;;;3.83;1.40;;;19.50;36.50;;;;;;5048760;28;20434;-62
2021/01/01 10:40:04;;;;;;;2.65;1.23;;;19.40;36.30;;;;;;5061143;28;20024;-63
2021/01/01 10:42:30;;;;;;;6.32;3.65;;;19.40;36.50;;;;;;5060550;28;20035;-63
2021/01/01 10:44:56;;;;;;;6.40;5.53;;;19.40;36.60;;;;;;5058437;28;20476;-63
2021/01/01 10:47:22;;;;;;;5.47;3.83;;;19.30;36.50;;;;;;5055059;28;20024;-61
2021/01/01 10:49:48;;;;;;;10.00;6.45;;;19.30;36.60;;;;;;5047783;28;20121;-58
2021/01/01 10:52:14;;;;;;;7.55;5.82;;;19.30;36.50;;;;;;5052386;28;20104;-65
2021/01/01 10:54:40;;;;;;;9.00;7.22;;;19.20;36.50;;;;;;5054427;28;21325;-64
2021/01/01 10:57:06;;;;;;;8.80;6.15;;;19.20;36.80;;;;;;5052799;28;20047;-69
2021/01/01 10:59:32;;;;;;;5.82;4.47;;;19.30;36.90;;;;;;5035054;28;20025;-69
2021/01/01 11:01:59;;;;;;;6.95;5.00;;;19.30;37.00;;;;;;5046723;28;20378;-63
2021/01/01 11:04:27;;;;;;;6.70;4.13;;;19.40;37.00;;;;;;5057735;28;20021;-66
2021/01/01 11:06:53;;;;;;;8.40;4.70;;;19.50;37.00;;;;;;5060982;28;20125;-65
2021/01/01 11:09:20;;;;;;;4.72;3.40;;;19.60;37.10;;;;;;5059208;28;20032;-65
2021/01/01 11:11:48;;;;;;;4.40;2.92;;;19.70;36.70;;;;;;5058329;28;20032;-64
2021/01/01 12:23:34;;;;;;;8.25;5.35;;;34.20;24.10;;;;;;5054967;28;20021;-59
2021/01/01 12:26:01;;;;;;;8.07;4.70;;;34.50;24.10;;;;;;5059176;28;20025;-59
2021/01/01 12:28:27;;;;;;;4.88;4.45;;;34.80;23.90;;;;;;5044480;28;20098;-57
2021/01/01 12:30:57;;;;;;;8.25;7.38;;;34.90;23.50;;;;;;5060409;28;20037;-63
2021/01/01 12:33:23;;;;;;;7.25;4.90;;;35.10;23.30;;;;;;5055321;28;20036;-62
2021/01/01 12:35:50;;;;;;;6.40;4.30;;;35.30;23.10;;;;;;5062063;28;20054;-59
2021/01/01 12:38:16;;;;;;;5.95;5.35;;;35.30;22.90;;;;;;5055408;28;20032;-60
2021/01/01 12:40:42;;;;;;;4.40;4.00;;;35.50;23.10;;;;;;5055999;28;20530;-60
2021/01/01 12:43:08;;;;;;;4.30;3.90;;;35.70;23.30;;;;;;5058328;28;20048;-60
2021/01/01 12:45:34;;;;;;;7.85;4.00;;;35.80;23.20;;;;;;5060570;28;20052;-60
2021/01/01 12:48:00;;;;;;;3.53;2.92;;;35.90;23.20;;;;;;5047654;28;20544;-60
2021/01/01 12:50:26;;;;;;;7.20;3.90;;;35.90;22.80;;;;;;5063184;28;20447;-60
2021/01/01 12:52:54;;;;;;;16.98;15.25;;;35.80;22.90;;;;;;5059533;28;20096;-60
2021/01/01 12:55:20;;;;;;;11.23;9.57;;;35.60;23.00;;;;;;5035713;28;20035;-59
2021/01/01 12:57:47;;;;;;;11.50;10.50;;;35.30;23.20;;;;;;5054344;28;20075;-58
2021/01/01 13:00:13;;;;;;;12.02;10.93;;;34.90;23.40;;;;;;5049703;28;20029;-58
2021/01/01 13:02:39;;;;;;;10.65;9.70;;;34.40;23.60;;;;;;5050200;28;20029;-58
2021/01/01 13:05:06;;;;;;;12.27;11.07;;;33.90;23.80;;;;;;5036360;28;20120;-58
2021/01/01 13:07:32;;;;;;;10.90;9.85;;;33.40;24.10;;;;;;5052512;28;20048;-58
2021/01/01 13:09:59;;;;;;;11.60;10.50;;;33.00;24.40;;;;;;5050645;28;20032;-58
2021/01/01 13:12:25;;;;;;;11.52;10.35;;;32.50;24.60;;;;;;5035792;28;20025;-59
2021/01/01 13:14:51;;;;;;;11.63;10.43;;;32.10;24.80;;;;;;5050401;28;20124;-58
2021/01/01 13:17:18;;;;;;;11.68;10.55;;;31.70;25.10;;;;;;5050651;28;20489;-58
2021/01/01 13:19:44;;;;;;;11.32;9.98;;;31.30;25.20;;;;;;5036227;28;20094;-58
2021/01/01 13:22:10;;;;;;;10.48;9.52;;;31.00;25.40;;;;;;5039489;28;20017;-58
2021/01/01 13:24:36;;;;;;;12.30;9.13;;;30.70;25.60;;;;;;5049235;28;20017;-59
2021/01/01 13:27:02;;;;;;;10.10;9.00;;;30.50;25.80;;;;;;5052517;28;20036;-59
2021/01/01 13:29:28;;;;;;;10.48;9.48;;;30.20;26.00;;;;;;5051186;28;20077;-58
2021/01/01 13:31:54;;;;;;;9.68;8.60;;;30.00;26.10;;;;;;5054419;28;20044;-59
2021/01/01 13:34:21;;;;;;;9.88;8.57;;;29.80;26.20;;;;;;5053715;28;20016;-58
2021/01/01 13:36:52;;;;;;;8.98;8.07;;;29.70;26.40;;;;;;5035248;28;20021;-65
2021/01/01 13:39:18;;;;;;;8.60;7.57;;;29.50;26.30;;;;;;5048202;28;20514;-66
2021/01/01 13:41:45;;;;;;;8.27;7.47;;;29.40;26.50;;;;;;5034530;28;20021;-66
2021/01/01 13:44:11;;;;;;;8.82;7.82;;;29.40;26.60;;;;;;5036170;28;20025;-69
2021/01/01 13:46:37;;;;;;;8.35;7.45;;;29.40;26.70;;;;;;5050323;28;20104;-68
2021/01/01 13:49:05;;;;;;;7.45;6.75;;;29.40;26.70;;;;;;5031962;28;20238;-71
2021/01/01 13:51:34;;;;;;;6.97;6.30;;;29.40;26.70;;;;;;5054761;28;20402;-73
2021/01/01 13:54:00;;;;;;;6.85;6.10;;;29.40;26.70;;;;;;5054525;28;20543;-68